EGPNEGPD

Guest
Details From EGPN - Dundee
To EGPD - Aberdeen Dyce
Flight Number -
Tags Generated
Created
Modified
Stats Distance 53 nm / 98 km
Max Altitude 0 ft / 0 m
Waypoints 2
Social Downloads 5
Likes 0
Share VATSIM

Download

Looking for another format? Having issues loading an existing format? Contact us
Advertisement - Login to hide

Notes

Generated

Route

EGPN EGPD

ID Type Via Altitude Latitude Longitude Leg Dist Tot Dist Heading (true) Name
O EGPN APT - 0 ft / 0 m 56.45247˚ -3.03718˚ - 0 nm - -
O EGPD APT - 0 ft / 0 m 57.20472˚ -2.20167˚ 52 nm 52 nm 31° / 32° Aberdeen Dyce

Altitude Profile

Advertisement - Login to hide

EGPN

Details ICAO EGPN (DND)
Name Dundee
Region United Kingdom
Timezone Unknown (UTC+0.0)
Stats Elevation 17 ft / 5 m (AMSL)
Location 56.452410° -3.025830°
Runways 1
Magnetic Variation 2.245° W

METAR

Not found

TAF

Not found

Departure Runways

ID Width Length Bearing (true) Bearing (mag) Surface Threshold Offset Overrun Length
09 98 ft / 30 m 4,578 ft / 1,396 m 90.49° 92.73° Asphalt 0 ft / 0 m 0 ft / 0 m
27 98 ft / 30 m 4,578 ft / 1,396 m 270.51° 272.75° Asphalt 0 ft / 0 m 0 ft / 0 m

EGPD

Details ICAO EGPD (ABZ)
Name Aberdeen Dyce
Region United Kingdom
Timezone Europe/London (UTC+0.0)
Stats Elevation 215 ft / 66 m (AMSL)
Location 57.203623° -2.199018°
Runways 4
Magnetic Variation 2.022° W

METAR

EGPD 172250Z AUTO 27007KT 9999 SCT032 04/01 Q1018

Decode

TAF

TAF AMD EGPD 172028Z 1720/1818 27009KT 9999 FEW015 SCT030= TAF EKKA 172020Z 1721/1818 18010KT 9999 SCT012 BKN030 BECMG 1721/1724 4000 -RA BR BKN008 TEMPO 1800/1816 1800 -RASN BKN003 BECMG 1816/1818 26010KT 9999 NSW SCT015

Decode

Destination Runways

ID Width Length Bearing (true) Bearing (mag) Surface Threshold Offset Overrun Length
05 151 ft / 46 m 1,555 ft / 474 m 46.38° 48.40° Concrete 0 ft / 0 m 0 ft / 0 m
14 118 ft / 36 m 1,901 ft / 579 m 139.16° 141.18° Asphalt 0 ft / 0 m 0 ft / 0 m
16 151 ft / 46 m 6,006 ft / 1,831 m 158.21° 160.23° Asphalt 0 ft / 0 m 0 ft / 0 m
18 75 ft / 23 m 896 ft / 273 m 179.48° 181.50° Asphalt 0 ft / 0 m 0 ft / 0 m
23 151 ft / 46 m 1,555 ft / 474 m 226.38° 228.40° Concrete 0 ft / 0 m 0 ft / 0 m
32 118 ft / 36 m 1,901 ft / 579 m 319.16° 321.18° Asphalt 0 ft / 0 m 0 ft / 0 m
34 151 ft / 46 m 6,006 ft / 1,831 m 338.22° 340.24° Asphalt 0 ft / 0 m 0 ft / 0 m
36 75 ft / 23 m 896 ft / 273 m 359.48° 1.50° Asphalt 0 ft / 0 m 0 ft / 0 m

Approach Navaids

Runway Type Ident Frequency Range Bearing (true) Bearing (mag) Slope Elevation
16 Localiser IAX 109.90 MHz 18 nm / 33 km 158.22° 160.24° - 215 ft / 66 m (AMSL)
16 Glidescope IAX 109.90 MHz 10 nm / 19 km 158.21° 160.23° 3.00° 215 ft / 66 m (AMSL)
16 DME IAX 109.90 MHz 18 nm / 33 km - - - 215 ft / 66 m (AMSL)
34 Localiser IABD 109.90 MHz 18 nm / 33 km 338.20° 340.22° - 215 ft / 66 m (AMSL)
34 Glidescope IABD 109.90 MHz 10 nm / 19 km 338.21° 340.23° 3.00° 215 ft / 66 m (AMSL)
34 DME IABD 109.90 MHz 18 nm / 33 km - - - 215 ft / 66 m (AMSL)

Popular Alternatives